Terminal Aerodrome Forecast
Issued by NWS Portland, OR

Home | Current Version | Previous Version | Text Only | Print | Product List | Glossary On
Versions: 1 2 3 4 5 6 7 8 9 10 11 12 13
000
FTUS46 KPQR 251721
TAFHIO
TAF
KHIO 251721Z 2518/2618 VRB03KT P6SM SKC
     FM252000 32004KT P6SM SKC
     FM260100 33010KT P6SM SKC
     FM260900 30006KT P6SM OVC020
     FM261200 00000KT P6SM OVC019=

USA.gov is the U.S. government's official web portal to all federal, state and local government web resources and services.